KCNO/CNO METAR and TAF weather

Enter ICAO airport designator
Station Type Date Time Source
KCNO METAR 2020/12/06 01:53 UTC NOAA

KCNO 060153Z 32005KT 10SM CLR 16/M05 A3022 RMK AO2 SLP233 T01561050


Station Type Date Time Source
KCNO Decoded METAR 2020/12/06 01:53 UTC NOAA

CHINO AIRPORT, CA, United States (KCNO) 33-58N 117-38W 207M
Dec 05, 2020 - 08:53 PM EST / 2020.12.06 0153 UTC
Wind: from the NW (320 degrees) at 6 MPH (5 KT):0
Visibility: 10 mile(s):0
Sky conditions: clear
Temperature: 60.1 F (15.6 C)
Dew Point: 23.0 F (-5.0 C)
Relative Humidity: 23%
Pressure (altimeter): 30.22 in. Hg (1023 hPa)
ob: KCNO 060153Z 32005KT 10SM CLR 16/M05 A3022 RMK AO2 SLP233 T01561050
cycle: 2

Station Type Date Time Source
KCNO TAF UTC NOAA

Error!

Example: see airport list